sensor_id;sensor_type;location;lat;lon;timestamp;P1;durP1;ratioP1;P2;durP2;ratioP2
5612;SDS011;63463;53.586;9.928;2022-12-29T00:01:54;7.00;;;6.20;;
5612;SDS011;63463;53.586;9.928;2022-12-29T00:04:20;6.77;;;6.17;;
5612;SDS011;63463;53.586;9.928;2022-12-29T00:06:46;6.70;;;6.30;;
5612;SDS011;63463;53.586;9.928;2022-12-29T00:09:13;6.20;;;5.83;;
5612;SDS011;63463;53.586;9.928;2022-12-29T00:11:39;6.43;;;5.93;;
5612;SDS011;63463;53.586;9.928;2022-12-29T00:14:05;7.03;;;6.50;;
5612;SDS011;63463;53.586;9.928;2022-12-29T00:16:50;7.40;;;6.80;;
5612;SDS011;63463;53.586;9.928;2022-12-29T00:19:16;7.60;;;6.50;;
5612;SDS011;63463;53.586;9.928;2022-12-29T00:22:00;7.43;;;6.73;;
5612;SDS011;63463;53.586;9.928;2022-12-29T00:24:45;6.53;;;5.93;;
5612;SDS011;63463;53.586;9.928;2022-12-29T00:27:26;7.37;;;6.70;;
5612;SDS011;63463;53.586;9.928;2022-12-29T00:30:12;7.40;;;6.73;;
5612;SDS011;63463;53.586;9.928;2022-12-29T00:32:58;6.90;;;6.40;;
5612;SDS011;63463;53.586;9.928;2022-12-29T00:35:45;6.40;;;5.90;;
5612;SDS011;63463;53.586;9.928;2022-12-29T00:38:11;6.70;;;6.20;;
5612;SDS011;63463;53.586;9.928;2022-12-29T00:40:56;6.80;;;6.20;;
5612;SDS011;63463;53.586;9.928;2022-12-29T00:43:41;7.33;;;6.70;;
5612;SDS011;63463;53.586;9.928;2022-12-29T00:46:25;7.90;;;6.60;;
5612;SDS011;63463;53.586;9.928;2022-12-29T00:48:51;9.03;;;6.80;;
5612;SDS011;63463;53.586;9.928;2022-12-29T00:51:35;7.53;;;6.93;;
5612;SDS011;63463;53.586;9.928;2022-12-29T00:54:01;7.20;;;6.60;;
5612;SDS011;63463;53.586;9.928;2022-12-29T00:56:28;7.30;;;6.70;;
5612;SDS011;63463;53.586;9.928;2022-12-29T00:58:53;6.37;;;6.00;;
5612;SDS011;63463;53.586;9.928;2022-12-29T01:01:19;7.10;;;6.50;;
5612;SDS011;63463;53.586;9.928;2022-12-29T01:03:45;7.13;;;6.53;;
5612;SDS011;63463;53.586;9.928;2022-12-29T01:06:11;7.13;;;6.63;;
5612;SDS011;63463;53.586;9.928;2022-12-29T01:08:37;6.40;;;6.00;;
5612;SDS011;63463;53.586;9.928;2022-12-29T01:11:04;6.27;;;5.90;;
5612;SDS011;63463;53.586;9.928;2022-12-29T01:13:31;6.37;;;5.97;;
5612;SDS011;63463;53.586;9.928;2022-12-29T01:15:57;7.17;;;6.57;;
5612;SDS011;63463;53.586;9.928;2022-12-29T01:18:23;6.40;;;5.90;;
5612;SDS011;63463;53.586;9.928;2022-12-29T01:20:49;8.80;;;6.33;;
5612;SDS011;63463;53.586;9.928;2022-12-29T01:23:16;9.03;;;6.20;;
5612;SDS011;63463;53.586;9.928;2022-12-29T01:25:42;6.43;;;5.93;;
5612;SDS011;63463;53.586;9.928;2022-12-29T01:28:08;6.30;;;5.90;;
5612;SDS011;63463;53.586;9.928;2022-12-29T01:30:34;6.30;;;5.90;;
5612;SDS011;63463;53.586;9.928;2022-12-29T01:33:01;6.87;;;6.33;;
5612;SDS011;63463;53.586;9.928;2022-12-29T01:35:27;6.90;;;6.30;;
5612;SDS011;63463;53.586;9.928;2022-12-29T01:37:53;8.03;;;6.40;;
5612;SDS011;63463;53.586;9.928;2022-12-29T01:40:19;6.43;;;6.03;;
5612;SDS011;63463;53.586;9.928;2022-12-29T01:42:45;6.07;;;5.77;;
5612;SDS011;63463;53.586;9.928;2022-12-29T01:45:12;7.40;;;6.77;;
5612;SDS011;63463;53.586;9.928;2022-12-29T01:47:43;6.77;;;6.27;;
5612;SDS011;63463;53.586;9.928;2022-12-29T01:50:11;6.97;;;6.47;;
5612;SDS011;63463;53.586;9.928;2022-12-29T01:52:42;7.33;;;6.57;;
5612;SDS011;63463;53.586;9.928;2022-12-29T01:55:09;7.60;;;6.03;;
5612;SDS011;63463;53.586;9.928;2022-12-29T01:57:37;7.20;;;6.60;;
5612;SDS011;63463;53.586;9.928;2022-12-29T02:00:05;6.70;;;6.23;;
5612;SDS011;63463;53.586;9.928;2022-12-29T02:02:33;7.27;;;6.67;;
5612;SDS011;63463;53.586;9.928;2022-12-29T02:04:59;7.17;;;6.47;;
5612;SDS011;63463;53.586;9.928;2022-12-29T02:07:28;7.10;;;6.50;;
5612;SDS011;63463;53.586;9.928;2022-12-29T02:09:54;7.67;;;6.27;;
5612;SDS011;63463;53.586;9.928;2022-12-29T02:12:21;6.80;;;6.20;;
5612;SDS011;63463;53.586;9.928;2022-12-29T02:14:49;7.57;;;6.80;;
5612;SDS011;63463;53.586;9.928;2022-12-29T02:17:19;6.93;;;6.43;;
5612;SDS011;63463;53.586;9.928;2022-12-29T02:27:40;6.30;;;5.90;;
5612;SDS011;63463;53.586;9.928;2022-12-29T02:35:35;6.70;;;6.13;;
5612;SDS011;63463;53.586;9.928;2022-12-29T02:38:20;6.63;;;6.13;;
5612;SDS011;63463;53.586;9.928;2022-12-29T02:45:58;6.73;;;6.23;;
5612;SDS011;63463;53.586;9.928;2022-12-29T02:51:04;7.27;;;6.40;;
5612;SDS011;63463;53.586;9.928;2022-12-29T02:53:33;6.90;;;6.40;;
5612;SDS011;63463;53.586;9.928;2022-12-29T02:56:19;7.03;;;6.00;;
5612;SDS011;63463;53.586;9.928;2022-12-29T02:58:45;6.50;;;6.10;;
5612;SDS011;63463;53.586;9.928;2022-12-29T03:11:09;6.67;;;6.03;;
5612;SDS011;63463;53.586;9.928;2022-12-29T03:13:58;7.20;;;6.23;;
5612;SDS011;63463;53.586;9.928;2022-12-29T03:16:44;7.60;;;6.87;;
5612;SDS011;63463;53.586;9.928;2022-12-29T03:19:19;10.50;;;6.90;;
5612;SDS011;63463;53.586;9.928;2022-12-29T03:21:53;13.23;;;6.40;;
5612;SDS011;63463;53.586;9.928;2022-12-29T03:24:40;6.63;;;5.93;;
5612;SDS011;63463;53.586;9.928;2022-12-29T03:27:06;7.30;;;6.60;;
5612;SDS011;63463;53.586;9.928;2022-12-29T03:29:35;7.30;;;6.00;;
5612;SDS011;63463;53.586;9.928;2022-12-29T03:32:03;6.83;;;6.23;;
5612;SDS011;63463;53.586;9.928;2022-12-29T03:34:30;9.33;;;6.60;;
5612;SDS011;63463;53.586;9.928;2022-12-29T03:36:58;6.63;;;5.97;;
5612;SDS011;63463;53.586;9.928;2022-12-29T03:39:26;6.30;;;5.80;;
5612;SDS011;63463;53.586;9.928;2022-12-29T03:41:57;9.40;;;6.30;;
5612;SDS011;63463;53.586;9.928;2022-12-29T03:44:37;6.73;;;5.93;;
5612;SDS011;63463;53.586;9.928;2022-12-29T03:47:05;6.23;;;5.73;;
5612;SDS011;63463;53.586;9.928;2022-12-29T03:49:31;12.63;;;6.57;;
5612;SDS011;63463;53.586;9.928;2022-12-29T03:51:57;9.70;;;6.00;;
5612;SDS011;63463;53.586;9.928;2022-12-29T03:54:23;8.10;;;6.80;;
5612;SDS011;63463;53.586;9.928;2022-12-29T03:56:49;5.90;;;5.40;;
5612;SDS011;63463;53.586;9.928;2022-12-29T03:59:15;6.20;;;5.63;;
5612;SDS011;63463;53.586;9.928;2022-12-29T04:01:41;7.40;;;5.50;;
5612;SDS011;63463;53.586;9.928;2022-12-29T04:04:07;5.50;;;5.10;;
5612;SDS011;63463;53.586;9.928;2022-12-29T04:06:33;5.83;;;5.30;;
5612;SDS011;63463;53.586;9.928;2022-12-29T04:08:59;5.17;;;4.87;;
5612;SDS011;63463;53.586;9.928;2022-12-29T04:11:25;5.90;;;5.40;;
5612;SDS011;63463;53.586;9.928;2022-12-29T04:13:51;5.47;;;5.10;;
5612;SDS011;63463;53.586;9.928;2022-12-29T04:16:17;5.83;;;5.33;;
5612;SDS011;63463;53.586;9.928;2022-12-29T04:18:43;6.03;;;5.50;;
5612;SDS011;63463;53.586;9.928;2022-12-29T04:21:09;5.50;;;4.93;;
5612;SDS011;63463;53.586;9.928;2022-12-29T04:23:35;4.47;;;4.30;;
5612;SDS011;63463;53.586;9.928;2022-12-29T04:26:02;5.20;;;4.90;;
5612;SDS011;63463;53.586;9.928;2022-12-29T04:28:29;4.50;;;4.30;;
5612;SDS011;63463;53.586;9.928;2022-12-29T04:30:55;5.20;;;4.80;;
5612;SDS011;63463;53.586;9.928;2022-12-29T04:33:21;4.67;;;4.37;;
5612;SDS011;63463;53.586;9.928;2022-12-29T04:35:47;4.53;;;4.33;;
5612;SDS011;63463;53.586;9.928;2022-12-29T04:38:14;4.43;;;4.13;;
5612;SDS011;63463;53.586;9.928;2022-12-29T04:40:41;4.00;;;3.80;;
5612;SDS011;63463;53.586;9.928;2022-12-29T04:43:07;4.50;;;4.20;;
5612;SDS011;63463;53.586;9.928;2022-12-29T04:45:35;4.67;;;4.47;;
5612;SDS011;63463;53.586;9.928;2022-12-29T04:48:01;6.20;;;4.80;;
5612;SDS011;63463;53.586;9.928;2022-12-29T04:50:27;8.13;;;4.33;;
5612;SDS011;63463;53.586;9.928;2022-12-29T04:52:53;4.23;;;4.03;;
5612;SDS011;63463;53.586;9.928;2022-12-29T04:55:19;4.40;;;4.20;;
5612;SDS011;63463;53.586;9.928;2022-12-29T04:57:45;3.83;;;3.63;;
5612;SDS011;63463;53.586;9.928;2022-12-29T05:00:11;6.57;;;3.90;;
5612;SDS011;63463;53.586;9.928;2022-12-29T05:02:38;4.20;;;4.00;;
5612;SDS011;63463;53.586;9.928;2022-12-29T05:05:04;3.70;;;3.60;;
5612;SDS011;63463;53.586;9.928;2022-12-29T05:07:30;3.90;;;3.80;;
5612;SDS011;63463;53.586;9.928;2022-12-29T05:09:58;4.00;;;3.70;;
5612;SDS011;63463;53.586;9.928;2022-12-29T05:12:24;4.10;;;3.90;;
5612;SDS011;63463;53.586;9.928;2022-12-29T05:14:50;3.60;;;3.50;;
5612;SDS011;63463;53.586;9.928;2022-12-29T05:17:16;3.57;;;3.47;;
5612;SDS011;63463;53.586;9.928;2022-12-29T05:19:42;4.07;;;3.97;;
5612;SDS011;63463;53.586;9.928;2022-12-29T05:22:08;4.40;;;4.20;;
5612;SDS011;63463;53.586;9.928;2022-12-29T05:24:34;4.63;;;4.30;;
5612;SDS011;63463;53.586;9.928;2022-12-29T05:27:00;4.47;;;4.27;;
5612;SDS011;63463;53.586;9.928;2022-12-29T05:29:26;4.37;;;4.17;;
5612;SDS011;63463;53.586;9.928;2022-12-29T05:31:52;7.33;;;4.57;;
5612;SDS011;63463;53.586;9.928;2022-12-29T05:34:18;4.73;;;4.30;;
5612;SDS011;63463;53.586;9.928;2022-12-29T05:36:44;4.07;;;3.77;;
5612;SDS011;63463;53.586;9.928;2022-12-29T05:39:10;4.57;;;4.17;;
5612;SDS011;63463;53.586;9.928;2022-12-29T05:41:36;4.47;;;4.27;;
5612;SDS011;63463;53.586;9.928;2022-12-29T05:44:02;4.30;;;4.10;;
5612;SDS011;63463;53.586;9.928;2022-12-29T05:46:28;4.47;;;4.03;;
5612;SDS011;63463;53.586;9.928;2022-12-29T05:48:54;4.33;;;4.13;;
5612;SDS011;63463;53.586;9.928;2022-12-29T05:51:20;4.47;;;4.37;;
5612;SDS011;63463;53.586;9.928;2022-12-29T05:53:46;4.63;;;4.33;;
5612;SDS011;63463;53.586;9.928;2022-12-29T05:56:12;4.10;;;4.00;;
5612;SDS011;63463;53.586;9.928;2022-12-29T05:58:38;4.07;;;3.87;;
5612;SDS011;63463;53.586;9.928;2022-12-29T06:01:04;4.57;;;4.33;;
5612;SDS011;63463;53.586;9.928;2022-12-29T06:03:30;4.57;;;4.27;;
5612;SDS011;63463;53.586;9.928;2022-12-29T06:05:56;4.13;;;3.93;;
5612;SDS011;63463;53.586;9.928;2022-12-29T06:08:22;4.30;;;4.00;;
5612;SDS011;63463;53.586;9.928;2022-12-29T06:10:48;3.93;;;3.73;;
5612;SDS011;63463;53.586;9.928;2022-12-29T06:13:15;3.93;;;3.83;;
5612;SDS011;63463;53.586;9.928;2022-12-29T06:15:41;3.90;;;3.80;;
5612;SDS011;63463;53.586;9.928;2022-12-29T06:18:07;3.93;;;3.73;;
5612;SDS011;63463;53.586;9.928;2022-12-29T06:20:33;4.30;;;4.10;;
5612;SDS011;63463;53.586;9.928;2022-12-29T06:22:59;4.50;;;4.30;;
5612;SDS011;63463;53.586;9.928;2022-12-29T06:25:25;4.23;;;4.03;;
5612;SDS011;63463;53.586;9.928;2022-12-29T06:27:51;4.00;;;3.80;;
5612;SDS011;63463;53.586;9.928;2022-12-29T06:30:17;3.87;;;3.67;;
5612;SDS011;63463;53.586;9.928;2022-12-29T06:32:43;4.30;;;4.00;;
5612;SDS011;63463;53.586;9.928;2022-12-29T06:35:10;3.60;;;3.50;;
5612;SDS011;63463;53.586;9.928;2022-12-29T06:37:36;4.30;;;4.00;;
5612;SDS011;63463;53.586;9.928;2022-12-29T06:40:02;4.60;;;4.30;;
5612;SDS011;63463;53.586;9.928;2022-12-29T06:42:28;3.93;;;3.80;;
5612;SDS011;63463;53.586;9.928;2022-12-29T06:44:54;4.50;;;4.30;;
5612;SDS011;63463;53.586;9.928;2022-12-29T06:47:23;3.67;;;3.57;;
5612;SDS011;63463;53.586;9.928;2022-12-29T06:49:49;3.93;;;3.63;;
5612;SDS011;63463;53.586;9.928;2022-12-29T06:52:15;3.77;;;3.67;;
5612;SDS011;63463;53.586;9.928;2022-12-29T06:54:41;4.20;;;4.00;;
5612;SDS011;63463;53.586;9.928;2022-12-29T06:57:07;3.70;;;3.60;;
5612;SDS011;63463;53.586;9.928;2022-12-29T06:59:33;4.40;;;4.20;;
5612;SDS011;63463;53.586;9.928;2022-12-29T07:01:59;4.10;;;3.90;;
5612;SDS011;63463;53.586;9.928;2022-12-29T07:04:27;3.87;;;3.77;;
5612;SDS011;63463;53.586;9.928;2022-12-29T07:06:52;4.03;;;3.93;;
5612;SDS011;63463;53.586;9.928;2022-12-29T07:09:19;5.10;;;4.33;;
5612;SDS011;63463;53.586;9.928;2022-12-29T07:11:45;3.87;;;3.67;;
5612;SDS011;63463;53.586;9.928;2022-12-29T07:14:11;4.40;;;4.07;;
5612;SDS011;63463;53.586;9.928;2022-12-29T07:16:37;4.00;;;3.90;;
5612;SDS011;63463;53.586;9.928;2022-12-29T07:19:03;3.90;;;3.73;;
5612;SDS011;63463;53.586;9.928;2022-12-29T07:21:29;4.07;;;3.87;;
5612;SDS011;63463;53.586;9.928;2022-12-29T07:23:55;4.40;;;4.10;;
5612;SDS011;63463;53.586;9.928;2022-12-29T07:26:21;3.93;;;3.83;;
5612;SDS011;63463;53.586;9.928;2022-12-29T07:28:47;4.53;;;4.43;;
5612;SDS011;63463;53.586;9.928;2022-12-29T07:31:14;4.10;;;3.90;;
5612;SDS011;63463;53.586;9.928;2022-12-29T07:33:41;4.83;;;4.43;;
5612;SDS011;63463;53.586;9.928;2022-12-29T07:36:08;4.30;;;4.10;;
5612;SDS011;63463;53.586;9.928;2022-12-29T07:38:34;4.40;;;4.10;;
5612;SDS011;63463;53.586;9.928;2022-12-29T07:41:00;3.97;;;3.87;;
5612;SDS011;63463;53.586;9.928;2022-12-29T07:43:26;6.63;;;4.33;;
5612;SDS011;63463;53.586;9.928;2022-12-29T07:45:52;4.40;;;4.00;;
5612;SDS011;63463;53.586;9.928;2022-12-29T07:48:18;5.00;;;4.47;;
5612;SDS011;63463;53.586;9.928;2022-12-29T07:50:44;4.63;;;4.43;;
5612;SDS011;63463;53.586;9.928;2022-12-29T07:53:10;4.60;;;4.30;;
5612;SDS011;63463;53.586;9.928;2022-12-29T07:55:36;6.20;;;4.10;;
5612;SDS011;63463;53.586;9.928;2022-12-29T07:58:02;4.70;;;4.23;;
5612;SDS011;63463;53.586;9.928;2022-12-29T08:00:29;5.73;;;5.00;;
5612;SDS011;63463;53.586;9.928;2022-12-29T08:02:55;4.50;;;4.20;;
5612;SDS011;63463;53.586;9.928;2022-12-29T08:05:21;4.47;;;4.17;;
5612;SDS011;63463;53.586;9.928;2022-12-29T08:07:47;3.73;;;3.53;;
5612;SDS011;63463;53.586;9.928;2022-12-29T08:10:13;4.90;;;3.60;;
5612;SDS011;63463;53.586;9.928;2022-12-29T08:12:41;3.80;;;3.70;;
5612;SDS011;63463;53.586;9.928;2022-12-29T08:15:08;3.63;;;3.53;;
5612;SDS011;63463;53.586;9.928;2022-12-29T08:17:34;3.70;;;3.60;;
5612;SDS011;63463;53.586;9.928;2022-12-29T08:20:00;3.63;;;3.53;;
5612;SDS011;63463;53.586;9.928;2022-12-29T08:22:26;3.73;;;3.63;;
5612;SDS011;63463;53.586;9.928;2022-12-29T08:24:52;3.53;;;3.33;;
5612;SDS011;63463;53.586;9.928;2022-12-29T08:27:18;4.67;;;4.10;;
5612;SDS011;63463;53.586;9.928;2022-12-29T08:29:44;3.73;;;3.63;;
5612;SDS011;63463;53.586;9.928;2022-12-29T08:32:11;4.10;;;4.00;;
5612;SDS011;63463;53.586;9.928;2022-12-29T08:34:37;4.37;;;4.03;;
5612;SDS011;63463;53.586;9.928;2022-12-29T08:37:03;4.30;;;4.10;;
5612;SDS011;63463;53.586;9.928;2022-12-29T08:39:29;4.07;;;3.97;;
5612;SDS011;63463;53.586;9.928;2022-12-29T08:41:55;4.10;;;3.90;;
5612;SDS011;63463;53.586;9.928;2022-12-29T08:44:21;4.13;;;4.03;;
5612;SDS011;63463;53.586;9.928;2022-12-29T08:46:47;4.17;;;4.00;;
5612;SDS011;63463;53.586;9.928;2022-12-29T08:49:13;4.10;;;3.90;;
5612;SDS011;63463;53.586;9.928;2022-12-29T08:51:41;4.00;;;3.90;;
5612;SDS011;63463;53.586;9.928;2022-12-29T08:54:06;4.27;;;4.07;;
5612;SDS011;63463;53.586;9.928;2022-12-29T08:56:32;3.60;;;3.50;;
5612;SDS011;63463;53.586;9.928;2022-12-29T08:58:59;3.50;;;3.40;;
5612;SDS011;63463;53.586;9.928;2022-12-29T09:01:25;4.33;;;4.07;;
5612;SDS011;63463;53.586;9.928;2022-12-29T09:03:51;3.87;;;3.67;;
5612;SDS011;63463;53.586;9.928;2022-12-29T09:06:17;4.10;;;3.70;;
5612;SDS011;63463;53.586;9.928;2022-12-29T09:08:43;3.50;;;3.30;;
5612;SDS011;63463;53.586;9.928;2022-12-29T09:13:38;3.20;;;3.10;;
5612;SDS011;63463;53.586;9.928;2022-12-29T09:16:04;3.70;;;3.50;;
5612;SDS011;63463;53.586;9.928;2022-12-29T09:18:30;3.23;;;3.10;;
5612;SDS011;63463;53.586;9.928;2022-12-29T09:21:00;8.90;;;3.63;;
5612;SDS011;63463;53.586;9.928;2022-12-29T09:23:27;4.90;;;3.50;;
5612;SDS011;63463;53.586;9.928;2022-12-29T09:25:53;8.93;;;3.80;;
5612;SDS011;63463;53.586;9.928;2022-12-29T09:28:19;3.87;;;3.67;;
5612;SDS011;63463;53.586;9.928;2022-12-29T09:30:46;3.50;;;3.30;;
5612;SDS011;63463;53.586;9.928;2022-12-29T09:33:12;3.73;;;3.40;;
5612;SDS011;63463;53.586;9.928;2022-12-29T09:35:45;3.10;;;3.00;;
5612;SDS011;63463;53.586;9.928;2022-12-29T09:38:12;4.67;;;3.30;;
5612;SDS011;63463;53.586;9.928;2022-12-29T09:40:40;3.43;;;3.17;;
5612;SDS011;63463;53.586;9.928;2022-12-29T09:48:18;3.60;;;3.40;;
5612;SDS011;63463;53.586;9.928;2022-12-29T09:50:48;3.20;;;3.10;;
5612;SDS011;63463;53.586;9.928;2022-12-29T09:53:16;3.60;;;3.27;;
5612;SDS011;63463;53.586;9.928;2022-12-29T09:55:54;3.77;;;3.40;;
5612;SDS011;63463;53.586;9.928;2022-12-29T09:58:25;3.57;;;3.40;;
5612;SDS011;63463;53.586;9.928;2022-12-29T10:00:56;5.77;;;3.60;;
5612;SDS011;63463;53.586;9.928;2022-12-29T10:03:27;7.03;;;3.33;;
5612;SDS011;63463;53.586;9.928;2022-12-29T10:10:56;3.20;;;3.10;;
5612;SDS011;63463;53.586;9.928;2022-12-29T10:21:13;3.90;;;3.50;;
5612;SDS011;63463;53.586;9.928;2022-12-29T10:23:45;10.20;;;5.03;;
5612;SDS011;63463;53.586;9.928;2022-12-29T10:26:14;3.93;;;3.60;;
5612;SDS011;63463;53.586;9.928;2022-12-29T10:31:14;7.20;;;3.80;;
5612;SDS011;63463;53.586;9.928;2022-12-29T10:33:42;6.13;;;3.50;;
5612;SDS011;63463;53.586;9.928;2022-12-29T10:36:13;7.13;;;3.70;;
5612;SDS011;63463;53.586;9.928;2022-12-29T10:38:47;7.43;;;3.93;;
5612;SDS011;63463;53.586;9.928;2022-12-29T10:41:16;4.00;;;3.47;;
5612;SDS011;63463;53.586;9.928;2022-12-29T10:43:46;3.80;;;3.53;;
5612;SDS011;63463;53.586;9.928;2022-12-29T10:46:14;6.60;;;4.07;;
5612;SDS011;63463;53.586;9.928;2022-12-29T10:48:42;6.20;;;3.97;;
5612;SDS011;63463;53.586;9.928;2022-12-29T10:51:20;3.37;;;3.20;;
5612;SDS011;63463;53.586;9.928;2022-12-29T10:53:48;6.30;;;3.80;;
5612;SDS011;63463;53.586;9.928;2022-12-29T10:56:27;5.93;;;3.67;;
5612;SDS011;63463;53.586;9.928;2022-12-29T10:58:57;5.80;;;3.20;;
5612;SDS011;63463;53.586;9.928;2022-12-29T11:01:25;3.93;;;3.33;;
5612;SDS011;63463;53.586;9.928;2022-12-29T11:04:02;3.93;;;3.73;;
5612;SDS011;63463;53.586;9.928;2022-12-29T11:06:30;5.23;;;4.00;;
5612;SDS011;63463;53.586;9.928;2022-12-29T11:08:58;5.63;;;3.60;;
5612;SDS011;63463;53.586;9.928;2022-12-29T11:11:32;8.77;;;3.70;;
5612;SDS011;63463;53.586;9.928;2022-12-29T11:14:02;5.00;;;3.57;;
5612;SDS011;63463;53.586;9.928;2022-12-29T11:16:32;5.43;;;3.00;;
5612;SDS011;63463;53.586;9.928;2022-12-29T11:18:59;6.03;;;3.77;;
5612;SDS011;63463;53.586;9.928;2022-12-29T11:21:38;6.50;;;3.43;;
5612;SDS011;63463;53.586;9.928;2022-12-29T11:24:28;4.60;;;3.63;;
5612;SDS011;63463;53.586;9.928;2022-12-29T11:26:53;3.57;;;3.33;;
5612;SDS011;63463;53.586;9.928;2022-12-29T11:29:24;5.53;;;3.63;;
5612;SDS011;63463;53.586;9.928;2022-12-29T11:31:51;5.13;;;3.57;;
5612;SDS011;63463;53.586;9.928;2022-12-29T11:34:20;3.00;;;2.90;;
5612;SDS011;63463;53.586;9.928;2022-12-29T11:36:47;7.23;;;3.60;;
5612;SDS011;63463;53.586;9.928;2022-12-29T11:39:25;4.10;;;3.60;;
5612;SDS011;63463;53.586;9.928;2022-12-29T11:41:52;3.40;;;3.13;;
5612;SDS011;63463;53.586;9.928;2022-12-29T11:44:18;3.47;;;3.20;;
5612;SDS011;63463;53.586;9.928;2022-12-29T11:46:45;3.53;;;3.23;;
5612;SDS011;63463;53.586;9.928;2022-12-29T11:49:13;3.50;;;3.30;;
5612;SDS011;63463;53.586;9.928;2022-12-29T11:51:45;4.00;;;3.47;;
5612;SDS011;63463;53.586;9.928;2022-12-29T11:54:15;2.93;;;2.83;;
5612;SDS011;63463;53.586;9.928;2022-12-29T11:56:43;3.10;;;3.00;;
5612;SDS011;63463;53.586;9.928;2022-12-29T12:01:56;7.13;;;2.90;;
5612;SDS011;63463;53.586;9.928;2022-12-29T12:04:24;3.13;;;2.93;;
5612;SDS011;63463;53.586;9.928;2022-12-29T12:06:59;5.93;;;3.83;;
5612;SDS011;63463;53.586;9.928;2022-12-29T12:09:28;5.80;;;3.63;;
5612;SDS011;63463;53.586;9.928;2022-12-29T12:11:55;7.83;;;3.53;;
5612;SDS011;63463;53.586;9.928;2022-12-29T12:16:55;3.53;;;3.23;;
5612;SDS011;63463;53.586;9.928;2022-12-29T12:19:36;5.57;;;3.20;;
5612;SDS011;63463;53.586;9.928;2022-12-29T12:22:21;3.97;;;3.30;;
5612;SDS011;63463;53.586;9.928;2022-12-29T12:24:52;4.33;;;3.87;;
5612;SDS011;63463;53.586;9.928;2022-12-29T12:27:24;5.90;;;3.20;;
5612;SDS011;63463;53.586;9.928;2022-12-29T12:29:52;3.40;;;3.20;;
5612;SDS011;63463;53.586;9.928;2022-12-29T12:34:57;4.50;;;3.30;;
5612;SDS011;63463;53.586;9.928;2022-12-29T12:39:56;4.83;;;3.50;;
5612;SDS011;63463;53.586;9.928;2022-12-29T12:47:44;3.40;;;3.30;;
5612;SDS011;63463;53.586;9.928;2022-12-29T12:52:48;5.27;;;3.87;;
5612;SDS011;63463;53.586;9.928;2022-12-29T12:57:58;4.10;;;3.27;;
5612;SDS011;63463;53.586;9.928;2022-12-29T13:00:29;6.13;;;3.80;;
5612;SDS011;63463;53.586;9.928;2022-12-29T13:13:51;8.27;;;4.13;;
5612;SDS011;63463;53.586;9.928;2022-12-29T13:19:08;11.40;;;4.00;;
5612;SDS011;63463;53.586;9.928;2022-12-29T13:24:24;3.53;;;3.30;;
5612;SDS011;63463;53.586;9.928;2022-12-29T13:26:53;8.23;;;3.80;;
5612;SDS011;63463;53.586;9.928;2022-12-29T13:32:30;5.03;;;3.93;;
5612;SDS011;63463;53.586;9.928;2022-12-29T13:37:31;8.30;;;3.50;;
5612;SDS011;63463;53.586;9.928;2022-12-29T13:40:03;4.00;;;3.70;;
5612;SDS011;63463;53.586;9.928;2022-12-29T13:42:35;6.93;;;3.77;;
5612;SDS011;63463;53.586;9.928;2022-12-29T13:45:06;6.77;;;3.83;;
5612;SDS011;63463;53.586;9.928;2022-12-29T13:50:02;10.27;;;3.70;;
5612;SDS011;63463;53.586;9.928;2022-12-29T13:52:35;5.13;;;3.73;;
5612;SDS011;63463;53.586;9.928;2022-12-29T14:00:16;6.97;;;4.00;;
5612;SDS011;63463;53.586;9.928;2022-12-29T14:07:57;3.43;;;3.20;;
5612;SDS011;63463;53.586;9.928;2022-12-29T14:10:37;4.27;;;3.50;;
5612;SDS011;63463;53.586;9.928;2022-12-29T14:13:13;6.53;;;3.70;;
5612;SDS011;63463;53.586;9.928;2022-12-29T14:15:40;7.00;;;3.60;;
5612;SDS011;63463;53.586;9.928;2022-12-29T14:18:18;6.30;;;3.70;;
5612;SDS011;63463;53.586;9.928;2022-12-29T14:28:26;5.33;;;3.60;;
5612;SDS011;63463;53.586;9.928;2022-12-29T14:30:53;6.67;;;3.67;;
5612;SDS011;63463;53.586;9.928;2022-12-29T14:33:19;16.20;;;4.10;;
5612;SDS011;63463;53.586;9.928;2022-12-29T14:35:51;5.40;;;4.23;;
5612;SDS011;63463;53.586;9.928;2022-12-29T14:38:36;7.67;;;3.67;;
5612;SDS011;63463;53.586;9.928;2022-12-29T14:43:53;4.80;;;3.70;;
5612;SDS011;63463;53.586;9.928;2022-12-29T14:46:20;6.63;;;3.90;;
5612;SDS011;63463;53.586;9.928;2022-12-29T14:48:46;4.13;;;3.83;;
5612;SDS011;63463;53.586;9.928;2022-12-29T14:51:20;4.60;;;3.97;;
5612;SDS011;63463;53.586;9.928;2022-12-29T14:53:48;4.97;;;4.10;;
5612;SDS011;63463;53.586;9.928;2022-12-29T14:56:15;4.73;;;4.00;;
5612;SDS011;63463;53.586;9.928;2022-12-29T15:03:44;4.30;;;3.90;;
5612;SDS011;63463;53.586;9.928;2022-12-29T15:06:12;10.70;;;4.60;;
5612;SDS011;63463;53.586;9.928;2022-12-29T15:11:20;4.10;;;3.80;;
5612;SDS011;63463;53.586;9.928;2022-12-29T15:13:47;15.77;;;4.57;;
5612;SDS011;63463;53.586;9.928;2022-12-29T15:18:51;5.33;;;4.03;;
5612;SDS011;63463;53.586;9.928;2022-12-29T15:21:19;4.97;;;4.57;;
5612;SDS011;63463;53.586;9.928;2022-12-29T15:23:47;5.23;;;4.50;;
5612;SDS011;63463;53.586;9.928;2022-12-29T15:26:13;13.30;;;4.40;;
5612;SDS011;63463;53.586;9.928;2022-12-29T15:28:46;7.47;;;4.80;;
5612;SDS011;63463;53.586;9.928;2022-12-29T15:31:14;8.30;;;4.10;;
5612;SDS011;63463;53.586;9.928;2022-12-29T15:33:41;5.93;;;3.90;;
5612;SDS011;63463;53.586;9.928;2022-12-29T15:36:12;6.53;;;4.20;;
5612;SDS011;63463;53.586;9.928;2022-12-29T15:38:38;5.17;;;4.07;;
5612;SDS011;63463;53.586;9.928;2022-12-29T15:46:05;10.80;;;4.43;;
5612;SDS011;63463;53.586;9.928;2022-12-29T15:48:31;5.50;;;4.63;;
5612;SDS011;63463;53.586;9.928;2022-12-29T15:50:58;9.60;;;4.60;;
5612;SDS011;63463;53.586;9.928;2022-12-29T15:53:26;12.20;;;4.77;;
5612;SDS011;63463;53.586;9.928;2022-12-29T15:56:00;4.60;;;4.20;;
5612;SDS011;63463;53.586;9.928;2022-12-29T15:58:27;4.63;;;3.87;;
5612;SDS011;63463;53.586;9.928;2022-12-29T16:00:54;8.00;;;4.50;;
5612;SDS011;63463;53.586;9.928;2022-12-29T16:03:21;7.20;;;4.53;;
5612;SDS011;63463;53.586;9.928;2022-12-29T16:08:40;5.07;;;4.67;;
5612;SDS011;63463;53.586;9.928;2022-12-29T16:11:50;5.23;;;4.10;;
5612;SDS011;63463;53.586;9.928;2022-12-29T16:13:56;4.60;;;4.40;;
5612;SDS011;63463;53.586;9.928;2022-12-29T16:16:25;5.20;;;4.70;;
5612;SDS011;63463;53.586;9.928;2022-12-29T16:18:52;7.83;;;5.20;;
5612;SDS011;63463;53.586;9.928;2022-12-29T16:23:51;14.30;;;5.60;;
5612;SDS011;63463;53.586;9.928;2022-12-29T16:26:19;8.63;;;5.77;;
5612;SDS011;63463;53.586;9.928;2022-12-29T16:28:58;29.50;;;14.50;;
5612;SDS011;63463;53.586;9.928;2022-12-29T16:31:32;21.90;;;9.80;;
5612;SDS011;63463;53.586;9.928;2022-12-29T16:33:58;25.47;;;12.60;;
5612;SDS011;63463;53.586;9.928;2022-12-29T16:36:39;24.30;;;12.17;;
5612;SDS011;63463;53.586;9.928;2022-12-29T16:41:51;19.40;;;11.07;;
5612;SDS011;63463;53.586;9.928;2022-12-29T16:44:18;30.23;;;13.00;;
5612;SDS011;63463;53.586;9.928;2022-12-29T16:47:05;15.07;;;8.33;;
5612;SDS011;63463;53.586;9.928;2022-12-29T16:49:38;9.57;;;7.50;;
5612;SDS011;63463;53.586;9.928;2022-12-29T16:52:38;19.03;;;10.70;;
5612;SDS011;63463;53.586;9.928;2022-12-29T16:54:58;30.20;;;13.07;;
5612;SDS011;63463;53.586;9.928;2022-12-29T16:57:28;15.73;;;10.17;;
5612;SDS011;63463;53.586;9.928;2022-12-29T16:59:56;16.90;;;10.80;;
5612;SDS011;63463;53.586;9.928;2022-12-29T17:02:23;41.03;;;23.47;;
5612;SDS011;63463;53.586;9.928;2022-12-29T17:04:50;22.43;;;9.80;;
5612;SDS011;63463;53.586;9.928;2022-12-29T17:07:18;15.57;;;9.10;;
5612;SDS011;63463;53.586;9.928;2022-12-29T17:09:45;13.73;;;8.83;;
5612;SDS011;63463;53.586;9.928;2022-12-29T17:12:13;25.70;;;13.53;;
5612;SDS011;63463;53.586;9.928;2022-12-29T17:17:17;26.83;;;8.30;;
5612;SDS011;63463;53.586;9.928;2022-12-29T17:19:45;7.00;;;5.67;;
5612;SDS011;63463;53.586;9.928;2022-12-29T17:22:13;14.00;;;6.90;;
5612;SDS011;63463;53.586;9.928;2022-12-29T17:24:40;11.23;;;6.60;;
5612;SDS011;63463;53.586;9.928;2022-12-29T17:27:06;8.23;;;7.30;;
5612;SDS011;63463;53.586;9.928;2022-12-29T17:29:33;10.10;;;6.00;;
5612;SDS011;63463;53.586;9.928;2022-12-29T17:32:01;11.20;;;6.03;;
5612;SDS011;63463;53.586;9.928;2022-12-29T17:34:27;14.83;;;5.67;;
5612;SDS011;63463;53.586;9.928;2022-12-29T17:36:53;18.37;;;5.83;;